Genesis Glory — WDG9354 — position and weather

sailwx.info

Track history (hours):
 
Tides and Currents Weather Stations Pressure Air Temp Water Temp Dewpoint Dewpoint Depression Visibility Wind Speed Wind Dir Waves Ship Positions

Genesis Glory

Owner: Genesis Marine, LLC, Houston, TX. More information available from US FCC via Universal Licensing System and Coast Guard Vessel Documentation Center.

Last reported at 2018-Jan-12 14:58 UTC. Time now 2018-Jan-18 15:27 UTC.
Position N 40°40' W 074°02'.

Length 36 m; draft 5 m.

Type: Towing. MMSI: 367586910.

Date/timePositionNaut miles runAvg speedWind from/ knotsBaromVisibWave heightAir tempDewpointWater temp
2018-Jan-12 14:58N 40°40' W 074°02'0 0.1
2018-Jan-12 14:28N 40°40' W 074°02'0 0.2
2018-Jan-12 13:58N 40°40' W 074°03'0 0.2
2018-Jan-12 13:28N 40°40' W 074°03'0 0.1
2018-Jan-12 12:58N 40°40' W 074°02'0 0.1
2018-Jan-12 12:28N 40°40' W 074°02'0 0.1
2018-Jan-12 11:58N 40°40' W 074°02'0 0.0
2018-Jan-12 11:28N 40°40' W 074°02'0 0.0
2018-Jan-12 10:58N 40°40' W 074°02'0 0.1
2018-Jan-12 10:28N 40°40' W 074°02'0 0.0
2018-Jan-12 09:58N 40°40' W 074°02'0 0.0
2018-Jan-12 09:28N 40°40' W 074°02'0 0.1
2018-Jan-12 08:58N 40°40' W 074°02'0 0.0
2018-Jan-12 08:28N 40°40' W 074°02'0 0.0
2018-Jan-12 07:58N 40°40' W 074°02'0 0.0
2018-Jan-12 07:28N 40°40' W 074°02'0 0.3
2018-Jan-12 06:58N 40°40' W 074°02'0 0.2
2018-Jan-12 06:28N 40°40' W 074°02'0 0.1
2018-Jan-12 05:58N 40°40' W 074°02'0 0.0
2018-Jan-12 05:28N 40°40' W 074°02'0 0.1
2018-Jan-12 04:58N 40°40' W 074°02'0 0.1
2018-Jan-12 04:28N 40°40' W 074°02'0 0.0
2018-Jan-12 03:55N 40°40' W 074°02'0 0.0
2018-Jan-12 03:28N 40°40' W 074°02'0 0.0
2018-Jan-12 02:58N 40°40' W 074°02'0 0.0
2018-Jan-12 02:28N 40°40' W 074°02'0 0.1
2018-Jan-12 01:58N 40°40' W 074°02'0 0.1
2018-Jan-12 01:28N 40°40' W 074°02'0 0.1
2018-Jan-12 00:58N 40°40' W 074°02'0 0.3
2018-Jan-12 00:28N 40°40' W 074°02'0 0.2
2018-Jan-11 23:55N 40°40' W 074°02'0 0.1
2018-Jan-11 23:28N 40°40' W 074°02'0 0.0
2018-Jan-11 22:58N 40°40' W 074°02'0 0.0
2018-Jan-11 22:28N 40°40' W 074°02'0 0.0
2018-Jan-11 21:58N 40°40' W 074°02'0 0.0
2018-Jan-11 21:28N 40°40' W 074°02'0 0.0
2018-Jan-11 20:58N 40°40' W 074°02'0 0.1
2018-Jan-11 20:28N 40°40' W 074°02'0 0.2
2018-Jan-11 19:58N 40°40' W 074°02'0 0.3
2018-Jan-11 19:28N 40°40' W 074°02'0 0.1
2018-Jan-11 18:58N 40°40' W 074°02'1 1.4
2018-Jan-11 18:30N 40°39' W 074°03'4 6.6
2018-Jan-11 17:52N 40°39' W 074°08'1 0.3
2018-Jan-11 13:48N 40°39' W 074°10'310.5
2018-Jan-11 13:30N 40°39' W 074°06'5 9.3
2018-Jan-11 13:01N 40°40' W 074°00'0 0.0
2018-Jan-11 12:30N 40°40' W 074°00'0 0.0
2018-Jan-11 12:01N 40°40' W 074°00'0 0.0
2018-Jan-11 11:31N 40°40' W 074°00'0 0.0
2018-Jan-11 11:00N 40°40' W 074°00'0 0.0
2018-Jan-11 10:31N 40°40' W 074°00'0 0.0
2018-Jan-11 10:01N 40°40' W 074°00'0 0.0
2018-Jan-11 09:31N 40°40' W 074°00'0 0.0
2018-Jan-11 09:01N 40°40' W 074°00'0 0.0
2018-Jan-11 08:31N 40°40' W 074°00'0 0.0
2018-Jan-11 08:00N 40°40' W 074°00'0 0.2
2018-Jan-11 07:30N 40°40' W 074°00'0 0.7
2018-Jan-11 07:01N 40°40' W 074°01'4 8.0
2018-Jan-11 06:31N 40°39' W 074°06'1 1.6
2018-Jan-11 06:00N 40°39' W 074°07'0 0.0
2018-Jan-11 05:30N 40°39' W 074°07'0 0.0
2018-Jan-11 04:59N 40°39' W 074°07'0 0.0
2018-Jan-11 04:27N 40°39' W 074°07'0 0.0
2018-Jan-11 03:54N 40°39' W 074°07'0 0.0
2018-Jan-11 03:26N 40°39' W 074°07'0 0.3
2018-Jan-11 02:02N 40°39' W 074°07'0 5.1
2018-Jan-11 01:59N 40°39' W 074°07'0 0.2
2018-Jan-11 01:31N 40°39' W 074°07'2 0.7
2018-Jan-10 21:49N 40°39' W 074°10'3 8.2
2018-Jan-10 21:30N 40°39' W 074°06'2 4.0
2018-Jan-10 20:55N 40°39' W 074°03'1 0.4
2018-Jan-10 18:18N 40°40' W 074°02'0 0.2
2018-Jan-10 17:36N 40°40' W 074°02'0 2.1
2018-Jan-10 17:29N 40°40' W 074°03'3 5.5
2018-Jan-10 17:00N 40°42' W 074°00'176 5.4
2018-Jan-09 08:32N 42°25' W 070°50'0 8.1
2018-Jan-09 08:30N 42°25' W 070°50'4 8.0
2018-Jan-09 08:01N 42°28' W 070°46'4 7.8
2018-Jan-09 07:31N 42°30' W 070°42'4 7.8
2018-Jan-09 07:00N 42°33' W 070°39'4 7.6
2018-Jan-09 06:30N 42°36' W 070°35'3 6.9
2018-Jan-09 06:00N 42°39' W 070°33'4 7.7
2018-Jan-09 05:30N 42°43' W 070°34'4 7.9
2018-Jan-09 05:01N 42°46' W 070°37'4 8.0
2018-Jan-09 04:30N 42°50' W 070°39'3 0.1
2018-Jan-07 19:18N 42°53' W 070°40'3 8.7
2018-Jan-07 19:00N 42°51' W 070°39'4 8.6
2018-Jan-07 18:30N 42°47' W 070°36'4 8.4
2018-Jan-07 18:00N 42°43' W 070°34'4 7.8
2018-Jan-07 17:30N 42°39' W 070°33'4 8.0
2018-Jan-07 17:00N 42°36' W 070°36'4 8.6
2018-Jan-07 16:30N 42°33' W 070°40'  
2018-Jan-04 06:50N 42°22' W 071°02'2 3.7
2018-Jan-04 06:25N 42°23' W 071°02'8 0.3
2018-Jan-03 05:34N 42°23' W 070°51'1 8.3
2018-Jan-03 05:30N 42°23' W 070°51'  
Track history (hours):
 
Tides and Currents Weather Stations Pressure Air Temp Water Temp Dewpoint Dewpoint Depression Visibility Wind Speed Wind Dir Waves Ship Positions

Genesis Glory

Owner: Genesis Marine, LLC, Houston, TX. More information available from US FCC via Universal Licensing System and Coast Guard Vessel Documentation Center.

Last reported at 2018-Jan-12 14:58 UTC. Time now 2018-Jan-18 15:27 UTC.
Position N 40°40' W 074°02'.

Length 36 m; draft 5 m.

Type: Towing. MMSI: 367586910.

Date/timePositionNaut miles runAvg speedWind from/ knotsBaromVisibWave heightAir tempDewpointWater temp
2018-Jan-12 14:58N 40°40' W 074°02'0 0.1
2018-Jan-12 14:28N 40°40' W 074°02'0 0.2
2018-Jan-12 13:58N 40°40' W 074°03'0 0.2
2018-Jan-12 13:28N 40°40' W 074°03'0 0.1
2018-Jan-12 12:58N 40°40' W 074°02'0 0.1
2018-Jan-12 12:28N 40°40' W 074°02'0 0.1
2018-Jan-12 11:58N 40°40' W 074°02'0 0.0
2018-Jan-12 11:28N 40°40' W 074°02'0 0.0
2018-Jan-12 10:58N 40°40' W 074°02'0 0.1
2018-Jan-12 10:28N 40°40' W 074°02'0 0.0
2018-Jan-12 09:58N 40°40' W 074°02'0 0.0
2018-Jan-12 09:28N 40°40' W 074°02'0 0.1
2018-Jan-12 08:58N 40°40' W 074°02'0 0.0
2018-Jan-12 08:28N 40°40' W 074°02'0 0.0
2018-Jan-12 07:58N 40°40' W 074°02'0 0.0
2018-Jan-12 07:28N 40°40' W 074°02'0 0.3
2018-Jan-12 06:58N 40°40' W 074°02'0 0.2
2018-Jan-12 06:28N 40°40' W 074°02'0 0.1
2018-Jan-12 05:58N 40°40' W 074°02'0 0.0
2018-Jan-12 05:28N 40°40' W 074°02'0 0.1
2018-Jan-12 04:58N 40°40' W 074°02'0 0.1
2018-Jan-12 04:28N 40°40' W 074°02'0 0.0
2018-Jan-12 03:55N 40°40' W 074°02'0 0.0
2018-Jan-12 03:28N 40°40' W 074°02'0 0.0
2018-Jan-12 02:58N 40°40' W 074°02'0 0.0
2018-Jan-12 02:28N 40°40' W 074°02'0 0.1
2018-Jan-12 01:58N 40°40' W 074°02'0 0.1
2018-Jan-12 01:28N 40°40' W 074°02'0 0.1
2018-Jan-12 00:58N 40°40' W 074°02'0 0.3
2018-Jan-12 00:28N 40°40' W 074°02'0 0.2
2018-Jan-11 23:55N 40°40' W 074°02'0 0.1
2018-Jan-11 23:28N 40°40' W 074°02'0 0.0
2018-Jan-11 22:58N 40°40' W 074°02'0 0.0
2018-Jan-11 22:28N 40°40' W 074°02'0 0.0
2018-Jan-11 21:58N 40°40' W 074°02'0 0.0
2018-Jan-11 21:28N 40°40' W 074°02'0 0.0
2018-Jan-11 20:58N 40°40' W 074°02'0 0.1
2018-Jan-11 20:28N 40°40' W 074°02'0 0.2
2018-Jan-11 19:58N 40°40' W 074°02'0 0.3
2018-Jan-11 19:28N 40°40' W 074°02'0 0.1
2018-Jan-11 18:58N 40°40' W 074°02'1 1.4
2018-Jan-11 18:30N 40°39' W 074°03'4 6.6
2018-Jan-11 17:52N 40°39' W 074°08'1 0.3
2018-Jan-11 13:48N 40°39' W 074°10'310.5
2018-Jan-11 13:30N 40°39' W 074°06'5 9.3
2018-Jan-11 13:01N 40°40' W 074°00'0 0.0
2018-Jan-11 12:30N 40°40' W 074°00'0 0.0
2018-Jan-11 12:01N 40°40' W 074°00'0 0.0
2018-Jan-11 11:31N 40°40' W 074°00'0 0.0
2018-Jan-11 11:00N 40°40' W 074°00'0 0.0
2018-Jan-11 10:31N 40°40' W 074°00'0 0.0
2018-Jan-11 10:01N 40°40' W 074°00'0 0.0
2018-Jan-11 09:31N 40°40' W 074°00'0 0.0
2018-Jan-11 09:01N 40°40' W 074°00'0 0.0
2018-Jan-11 08:31N 40°40' W 074°00'0 0.0
2018-Jan-11 08:00N 40°40' W 074°00'0 0.2
2018-Jan-11 07:30N 40°40' W 074°00'0 0.7
2018-Jan-11 07:01N 40°40' W 074°01'4 8.0
2018-Jan-11 06:31N 40°39' W 074°06'1 1.6
2018-Jan-11 06:00N 40°39' W 074°07'0 0.0
2018-Jan-11 05:30N 40°39' W 074°07'0 0.0
2018-Jan-11 04:59N 40°39' W 074°07'0 0.0
2018-Jan-11 04:27N 40°39' W 074°07'0 0.0
2018-Jan-11 03:54N 40°39' W 074°07'0 0.0
2018-Jan-11 03:26N 40°39' W 074°07'0 0.3
2018-Jan-11 02:02N 40°39' W 074°07'0 5.1
2018-Jan-11 01:59N 40°39' W 074°07'0 0.2
2018-Jan-11 01:31N 40°39' W 074°07'2 0.7
2018-Jan-10 21:49N 40°39' W 074°10'3 8.2
2018-Jan-10 21:30N 40°39' W 074°06'2 4.0
2018-Jan-10 20:55N 40°39' W 074°03'1 0.4
2018-Jan-10 18:18N 40°40' W 074°02'0 0.2
2018-Jan-10 17:36N 40°40' W 074°02'0 2.1
2018-Jan-10 17:29N 40°40' W 074°03'3 5.5
2018-Jan-10 17:00N 40°42' W 074°00'176 5.4
2018-Jan-09 08:32N 42°25' W 070°50'0 8.1
2018-Jan-09 08:30N 42°25' W 070°50'4 8.0
2018-Jan-09 08:01N 42°28' W 070°46'4 7.8
2018-Jan-09 07:31N 42°30' W 070°42'4 7.8
2018-Jan-09 07:00N 42°33' W 070°39'4 7.6
2018-Jan-09 06:30N 42°36' W 070°35'3 6.9
2018-Jan-09 06:00N 42°39' W 070°33'4 7.7
2018-Jan-09 05:30N 42°43' W 070°34'4 7.9
2018-Jan-09 05:01N 42°46' W 070°37'4 8.0
2018-Jan-09 04:30N 42°50' W 070°39'3 0.1
2018-Jan-07 19:18N 42°53' W 070°40'3 8.7
2018-Jan-07 19:00N 42°51' W 070°39'4 8.6
2018-Jan-07 18:30N 42°47' W 070°36'4 8.4
2018-Jan-07 18:00N 42°43' W 070°34'4 7.8
2018-Jan-07 17:30N 42°39' W 070°33'4 8.0
2018-Jan-07 17:00N 42°36' W 070°36'4 8.6
2018-Jan-07 16:30N 42°33' W 070°40'  
2018-Jan-04 06:50N 42°22' W 071°02'2 3.7
2018-Jan-04 06:25N 42°23' W 071°02'8 0.3
2018-Jan-03 05:34N 42°23' W 070°51'1 8.3
2018-Jan-03 05:30N 42°23' W 070°51'  

Dump ship's entire track history